Time;durP1;ratioP1;P1;durP2;ratioP2;P2;SDS_P1;SDS_P2;PMS_P1;PMS_P2;Temp;Humidity;BMP_temperature;BMP_pressure;BME280_temperature;BME280_humidity;BME280_pressure;Samples;Min_cycle;Max_cycle;Signal;HPM_P1;HPM_P2
2022/06/08 00:01:48;;;;;;;1071.65;967.90;;;9.40;92.70;;;;;;4964448;28;20189;-73
2022/06/08 00:04:15;;;;;;;1091.15;989.97;;;9.40;92.80;;;;;;4970010;28;20046;-73
2022/06/08 00:06:41;;;;;;;1074.13;965.38;;;9.40;92.80;;;;;;4962073;28;20121;-73
2022/06/08 00:09:06;;;;;;;1068.67;961.23;;;9.40;92.80;;;;;;4961322;28;20125;-73
2022/06/08 00:11:32;;;;;;;1150.03;999.90;;;9.40;92.90;;;;;;4949409;28;20098;-73
2022/06/08 00:13:58;;;;;;;1122.27;999.90;;;9.40;93.00;;;;;;4960495;28;20041;-73
2022/06/08 00:16:24;;;;;;;1146.40;999.90;;;9.50;93.20;;;;;;4948706;28;20047;-73
2022/06/08 00:18:49;;;;;;;1073.23;964.73;;;9.50;93.40;;;;;;4962101;28;20077;-73
2022/06/08 00:21:16;;;;;;;1133.83;999.90;;;9.40;93.50;;;;;;4950364;28;20448;-73
2022/06/08 00:23:42;;;;;;;1167.20;999.90;;;9.50;93.70;;;;;;4962745;28;20097;-73
2022/06/08 00:26:08;;;;;;;1112.72;994.97;;;9.50;93.80;;;;;;4960929;28;20039;-73
2022/06/08 00:28:34;;;;;;;1133.03;999.90;;;9.50;93.90;;;;;;4957557;28;20039;-73
2022/06/08 00:31:01;;;;;;;1138.33;999.90;;;9.50;93.90;;;;;;4956210;28;20039;-73
2022/06/08 00:33:27;;;;;;;1122.78;998.53;;;9.50;93.80;;;;;;4951278;28;20085;-73
2022/06/08 00:35:52;;;;;;;1131.10;999.90;;;9.40;93.90;;;;;;4961755;28;20062;-73
2022/06/08 00:38:18;;;;;;;1136.77;999.90;;;9.40;93.80;;;;;;4947675;28;20173;-73
2022/06/08 00:40:56;;;;;;;1112.70;998.03;;;9.40;93.70;;;;;;4935393;28;20057;-73
2022/06/08 00:43:22;;;;;;;1129.82;999.75;;;9.40;93.80;;;;;;4953738;28;20046;-73
2022/06/08 00:45:48;;;;;;;1223.22;999.90;;;9.40;93.90;;;;;;4947931;28;20384;-73
2022/06/08 00:48:15;;;;;;;1102.13;989.47;;;9.40;94.10;;;;;;4951110;28;20089;-73
2022/06/08 00:50:46;;;;;;;1115.40;996.58;;;9.50;94.10;;;;;;4961549;28;20385;-73
2022/06/08 00:53:15;;;;;;;1108.43;988.15;;;9.50;94.40;;;;;;4955065;28;20046;-73
2022/06/08 00:55:42;;;;;;;1145.22;999.90;;;9.50;94.40;;;;;;4947037;28;20046;-73
2022/06/08 00:58:16;;;;;;;1140.55;999.90;;;9.50;94.30;;;;;;4963416;28;20061;-73
2022/06/08 01:00:43;;;;;;;1072.95;963.03;;;9.50;94.40;;;;;;4969686;28;20047;-73
2022/06/08 01:03:13;;;;;;;1123.05;995.38;;;9.50;94.40;;;;;;4958645;28;20082;-73
2022/06/08 01:05:40;;;;;;;1120.03;996.58;;;9.50;94.50;;;;;;4966772;28;20054;-73
2022/06/08 01:08:39;;;;;;;1092.20;981.47;;;9.50;94.80;;;;;;4973210;28;20035;-73
2022/06/08 01:11:10;;;;;;;1092.50;979.35;;;9.50;95.00;;;;;;4956742;28;20523;-73
2022/06/08 01:13:38;;;;;;;1099.10;977.88;;;9.60;94.80;;;;;;4955207;28;20053;-73
2022/06/08 01:16:08;;;;;;;1117.35;994.20;;;9.60;94.90;;;;;;4940722;28;20062;-73
2022/06/08 01:18:35;;;;;;;1113.88;986.40;;;9.70;95.10;;;;;;4956699;28;20050;-73
2022/06/08 01:21:21;;;;;;;1080.65;970.15;;;9.70;95.10;;;;;;4956877;28;20471;-73
2022/06/08 01:24:00;;;;;;;1088.68;974.28;;;9.70;95.30;;;;;;4971865;28;20090;-73
2022/06/08 01:27:02;;;;;;;1072.97;962.17;;;9.70;95.40;;;;;;4972423;28;20035;-73
2022/06/08 01:29:39;;;;;;;1076.18;971.55;;;9.70;95.40;;;;;;4965230;28;20045;-73
2022/06/08 01:32:07;;;;;;;1074.68;961.35;;;9.80;95.60;;;;;;4972754;28;20039;-73
2022/06/08 01:34:55;;;;;;;1090.35;972.50;;;9.80;95.70;;;;;;4972916;28;20404;-73
2022/06/08 01:37:42;;;;;;;1073.55;965.00;;;9.90;95.70;;;;;;4971419;28;20042;-73
2022/06/08 01:40:34;;;;;;;1044.88;943.15;;;9.90;95.60;;;;;;4969335;28;20047;-73
2022/06/08 01:43:08;;;;;;;1046.38;933.63;;;9.80;95.50;;;;;;4967442;28;20090;-73
2022/06/08 01:45:52;;;;;;;1102.07;980.85;;;9.80;95.60;;;;;;4954654;28;20078;-73
2022/06/08 01:48:39;;;;;;;1059.05;958.08;;;9.80;95.60;;;;;;4978845;28;20042;-73
2022/06/08 01:51:17;;;;;;;1069.18;963.45;;;9.70;95.70;;;;;;4956072;28;20446;-73
2022/06/08 01:54:07;;;;;;;1055.68;956.63;;;9.70;95.70;;;;;;4972592;28;20050;-73
2022/06/08 01:56:51;;;;;;;1083.78;973.83;;;9.70;95.70;;;;;;4971875;28;20054;-74
2022/06/08 01:59:37;;;;;;;1077.30;969.80;;;9.60;95.70;;;;;;4952854;28;20129;-74
2022/06/08 02:02:30;;;;;;;1012.70;922.65;;;9.60;95.70;;;;;;4967202;28;20392;-73
2022/06/08 02:04:58;;;;;;;1069.82;969.42;;;9.60;95.70;;;;;;4966545;28;20107;-73
2022/06/08 02:07:33;;;;;;;1052.22;948.90;;;9.50;95.70;;;;;;4965497;28;20049;-73
2022/06/08 02:10:22;;;;;;;1043.03;943.78;;;9.50;95.80;;;;;;4965574;28;20119;-73
2022/06/08 02:13:00;;;;;;;1074.40;970.05;;;9.50;95.90;;;;;;4956285;28;20042;-73
2022/06/08 02:15:33;;;;;;;1084.03;968.65;;;9.40;95.90;;;;;;4953495;28;20049;-73
2022/06/08 02:18:04;;;;;;;1085.82;973.42;;;9.40;95.90;;;;;;4962399;28;20070;-73
2022/06/08 02:21:01;;;;;;;1102.68;985.67;;;9.40;95.90;;;;;;4948770;28;20391;-73
2022/06/08 02:23:35;;;;;;;1089.00;974.25;;;9.40;96.00;;;;;;4961939;28;20543;-73
2022/06/08 02:26:14;;;;;;;1030.55;933.65;;;9.40;96.00;;;;;;4948685;28;20030;-73
2022/06/08 02:29:02;;;;;;;1073.00;959.92;;;9.30;96.10;;;;;;4948033;28;20062;-73
2022/06/08 02:31:41;;;;;;;1102.43;986.83;;;9.30;96.20;;;;;;4958587;28;20499;-73
2022/06/08 02:37:00;;;;;;;1022.25;931.10;;;9.30;96.20;;;;;;4958641;28;20058;-73
2022/06/08 02:39:47;;;;;;;1029.10;934.63;;;9.20;96.30;;;;;;4961392;28;20039;-73
2022/06/08 02:42:35;;;;;;;984.75;897.17;;;9.20;96.20;;;;;;4964016;28;20121;-73
2022/06/08 02:45:11;;;;;;;976.15;893.15;;;9.20;96.30;;;;;;4976096;28;20719;-73
2022/06/08 02:47:38;;;;;;;994.90;905.30;;;9.20;96.40;;;;;;4951334;28;20035;-73
2022/06/08 02:50:08;;;;;;;1007.65;923.92;;;9.20;96.40;;;;;;4944061;28;20034;-73
2022/06/08 02:52:36;;;;;;;1817.78;999.90;;;9.20;96.50;;;;;;4962527;28;20046;-73
2022/06/08 02:55:10;;;;;;;1041.80;943.47;;;9.20;96.70;;;;;;4960559;28;20035;-73
2022/06/08 02:58:05;;;;;;;1048.68;928.30;;;9.20;96.70;;;;;;4959991;28;20047;-73
2022/06/08 03:00:44;;;;;;;1049.10;933.50;;;9.20;96.70;;;;;;4952666;28;20443;-73
2022/06/08 03:03:28;;;;;;;1196.07;978.85;;;9.20;96.60;;;;;;4956126;28;20482;-73
2022/06/08 03:06:05;;;;;;;1091.53;959.38;;;9.20;96.70;;;;;;4942718;28;20074;-73
2022/06/08 03:08:35;;;;;;;1167.13;973.40;;;9.30;96.80;;;;;;4964447;28;20453;-73
2022/06/08 03:11:04;;;;;;;1056.38;946.60;;;9.30;96.80;;;;;;4957182;28;20426;-73
2022/06/08 03:13:41;;;;;;;1999.90;999.90;;;9.30;96.90;;;;;;4956576;28;20515;-73
2022/06/08 03:16:08;;;;;;;1991.32;999.90;;;9.40;97.00;;;;;;4965141;28;20499;-73
2022/06/08 03:18:35;;;;;;;1999.90;999.90;;;9.40;97.00;;;;;;4956410;28;20066;-73
2022/06/08 03:21:03;;;;;;;1999.90;999.90;;;9.50;97.00;;;;;;4961362;28;20047;-73
2022/06/08 03:23:31;;;;;;;1999.90;999.90;;;9.50;96.90;;;;;;4955883;28;20046;-73
2022/06/08 03:25:56;;;;;;;1999.90;999.90;;;9.60;96.90;;;;;;4970192;28;20387;-73
2022/06/08 03:28:22;;;;;;;1999.90;999.90;;;9.60;97.00;;;;;;4956224;28;20050;-73
2022/06/08 03:30:48;;;;;;;1999.90;999.90;;;9.70;97.00;;;;;;4938922;28;20130;-73
2022/06/08 03:33:14;;;;;;;1999.90;999.90;;;9.70;97.10;;;;;;4939004;28;20054;-73
2022/06/08 03:35:41;;;;;;;1999.90;999.90;;;9.80;97.20;;;;;;4952224;28;21048;-73
2022/06/08 03:38:08;;;;;;;1999.90;999.90;;;9.80;97.30;;;;;;4956201;28;20053;-73
2022/06/08 03:40:34;;;;;;;1999.90;999.90;;;9.90;97.30;;;;;;4951890;28;20134;-73
2022/06/08 03:43:00;;;;;;;1999.90;999.90;;;10.00;97.30;;;;;;4963003;28;20074;-73
2022/06/08 03:45:30;;;;;;;1999.90;999.90;;;10.10;97.30;;;;;;4959135;28;20145;-73
2022/06/08 03:47:56;;;;;;;1999.90;999.90;;;10.10;97.30;;;;;;4961513;28;20499;-73
2022/06/08 03:50:26;;;;;;;1999.90;999.90;;;10.30;97.30;;;;;;4958465;28;20081;-73
2022/06/08 03:53:12;;;;;;;1999.90;999.90;;;10.40;97.30;;;;;;4964702;28;21723;-73
2022/06/08 03:55:37;;;;;;;;;;;10.50;97.40;;;;;;4965676;28;20803;-73
2022/06/08 03:58:04;;;;;;;1931.23;999.90;;;10.60;97.50;;;;;;4950139;28;19926;-73
2022/06/08 04:00:31;;;;;;;1999.90;999.90;;;10.80;97.60;;;;;;4946153;28;20039;-73
2022/06/08 04:02:58;;;;;;;1999.90;999.90;;;10.90;97.50;;;;;;4948835;28;20353;-73
2022/06/08 04:05:23;;;;;;;1999.90;999.90;;;11.10;97.30;;;;;;4942678;28;21071;-73
2022/06/08 04:07:49;;;;;;;1999.90;999.90;;;11.20;97.30;;;;;;4931004;28;20282;-73
2022/06/08 04:10:15;;;;;;;1999.90;999.90;;;11.30;97.20;;;;;;4946916;28;20448;-74
2022/06/08 04:12:41;;;;;;;1921.00;999.90;;;11.40;97.10;;;;;;4937623;28;20034;-73
2022/06/08 04:15:07;;;;;;;1989.67;999.90;;;11.50;97.10;;;;;;4937724;28;20039;-74
2022/06/08 04:17:33;;;;;;;1999.90;999.90;;;11.60;97.30;;;;;;4955999;28;20468;-73
2022/06/08 04:19:59;;;;;;;1999.90;999.90;;;11.70;97.10;;;;;;4944568;28;20691;-73
2022/06/08 04:22:31;;;;;;;1999.90;999.90;;;11.80;97.20;;;;;;4947296;28;20281;-74
2022/06/08 04:24:59;;;;;;;1999.90;999.90;;;11.80;97.10;;;;;;4941212;28;20034;-74
2022/06/08 04:27:26;;;;;;;1999.90;999.90;;;11.90;97.20;;;;;;4950612;28;20338;-73
2022/06/08 04:29:53;;;;;;;1999.90;999.90;;;12.00;97.20;;;;;;4950339;28;20442;-73
2022/06/08 04:32:18;;;;;;;1999.90;999.90;;;12.10;97.00;;;;;;4967295;28;20274;-73
2022/06/08 04:34:44;;;;;;;1999.90;999.90;;;12.20;97.00;;;;;;4950253;28;20287;-74
2022/06/08 04:37:10;;;;;;;1999.90;999.90;;;12.40;97.00;;;;;;4950614;28;20259;-74
2022/06/08 04:39:36;;;;;;;1999.90;999.90;;;12.50;97.10;;;;;;4966968;28;20794;-74
2022/06/08 04:42:04;;;;;;;1999.90;999.90;;;12.70;96.70;;;;;;4934338;28;20047;-74
2022/06/08 04:44:29;;;;;;;1999.90;999.90;;;12.80;96.60;;;;;;4950919;28;20042;-74
2022/06/08 04:46:55;;;;;;;1999.90;999.90;;;12.80;96.40;;;;;;4935213;28;20283;-74
2022/06/08 04:49:21;;;;;;;1999.90;999.90;;;12.90;96.10;;;;;;4951692;28;20031;-74
2022/06/08 04:51:47;;;;;;;1999.90;999.90;;;12.90;96.10;;;;;;4935176;28;20119;-74
2022/06/08 04:54:12;;;;;;;1999.90;999.90;;;13.00;96.00;;;;;;4935324;28;20045;-74
2022/06/08 04:56:38;;;;;;;1999.90;999.90;;;13.10;96.00;;;;;;4935386;28;20132;-74
2022/06/08 04:59:04;;;;;;;1946.80;999.90;;;13.20;95.80;;;;;;4951161;28;20070;-74
2022/06/08 05:01:30;;;;;;;1999.90;999.90;;;13.20;95.80;;;;;;4935117;28;20097;-74
2022/06/08 05:03:55;;;;;;;1999.90;999.90;;;13.20;95.40;;;;;;4942456;28;20087;-74
2022/06/08 05:06:21;;;;;;;1999.90;999.90;;;13.30;95.20;;;;;;4963733;28;20135;-74
2022/06/08 05:08:47;;;;;;;1999.90;999.90;;;13.30;95.20;;;;;;4950854;28;20447;-74
2022/06/08 05:11:14;;;;;;;1999.90;999.90;;;13.40;95.10;;;;;;4935073;28;20031;-74
2022/06/08 05:13:40;;;;;;;1999.90;999.90;;;13.50;95.00;;;;;;4951122;28;20408;-74
2022/06/08 05:16:06;;;;;;;1999.90;999.90;;;13.90;95.90;;;;;;4966775;28;20293;-74
2022/06/08 05:18:33;;;;;;;1999.90;999.90;;;14.60;94.40;;;;;;4961216;28;20116;-74
2022/06/08 05:20:59;;;;;;;1999.90;999.90;;;14.70;91.00;;;;;;4949815;28;20429;-74
2022/06/08 05:23:30;;;;;;;1999.90;999.90;;;14.70;90.60;;;;;;4939128;28;20786;-74
2022/06/08 05:25:56;;;;;;;1999.90;999.90;;;14.70;90.70;;;;;;4962381;28;20046;-74
2022/06/08 05:28:23;;;;;;;1999.90;999.90;;;14.70;90.40;;;;;;4949794;28;20546;-74
2022/06/08 05:30:49;;;;;;;1999.90;999.90;;;14.90;90.70;;;;;;4962667;28;20294;-74
2022/06/08 05:33:16;;;;;;;1999.90;999.90;;;15.00;90.80;;;;;;4946158;28;20284;-74
2022/06/08 05:35:44;;;;;;;1999.90;999.90;;;15.20;90.40;;;;;;4962840;28;20289;-74
2022/06/08 05:38:10;;;;;;;1999.90;999.90;;;15.20;90.30;;;;;;4962691;28;20818;-74
2022/06/08 05:40:37;;;;;;;1999.90;999.90;;;15.20;90.20;;;;;;4949204;28;20945;-73
2022/06/08 05:43:05;;;;;;;1999.90;999.90;;;15.20;89.90;;;;;;4980075;28;20310;-73
2022/06/08 05:45:32;;;;;;;1999.90;999.90;;;15.20;90.10;;;;;;4949872;28;20376;-74
2022/06/08 05:47:58;;;;;;;1999.90;999.90;;;15.20;90.30;;;;;;4966392;28;20278;-74
2022/06/08 05:50:25;;;;;;;1999.90;999.90;;;15.40;90.80;;;;;;4963161;28;20278;-74
2022/06/08 05:52:51;;;;;;;1999.90;999.90;;;15.70;89.00;;;;;;4962870;28;20647;-74
2022/06/08 05:55:19;;;;;;;1999.90;999.90;;;15.80;88.80;;;;;;4954061;28;20373;-74
2022/06/08 05:57:45;;;;;;;1999.90;999.90;;;15.80;88.70;;;;;;4982359;28;20286;-74
2022/06/08 06:00:15;;;;;;;1999.90;999.90;;;15.60;88.40;;;;;;4954340;28;20290;-74
2022/06/08 06:02:42;;;;;;;1999.90;999.90;;;15.60;88.30;;;;;;4953478;28;20588;-74
2022/06/08 06:05:09;;;;;;;1999.90;999.90;;;15.50;88.10;;;;;;4981110;28;20282;-74
2022/06/08 06:07:35;;;;;;;1999.90;999.90;;;15.50;88.90;;;;;;4965067;28;20285;-74
2022/06/08 06:10:03;;;;;;;1999.90;999.90;;;15.50;89.00;;;;;;4948462;28;20290;-74
2022/06/08 06:12:32;;;;;;;1999.90;999.90;;;15.60;89.00;;;;;;4965217;28;20478;-74
2022/06/08 06:15:01;;;;;;;1999.90;999.90;;;15.90;89.70;;;;;;4963794;28;20360;-74
2022/06/08 06:17:30;;;;;;;1999.90;999.90;;;16.70;88.60;;;;;;4982349;28;20293;-75
2022/06/08 06:19:56;;;;;;;1999.90;999.90;;;17.00;85.30;;;;;;4979085;28;20283;-74
2022/06/08 06:22:22;;;;;;;1999.90;999.90;;;16.90;84.90;;;;;;4956395;28;20286;-74
2022/06/08 06:24:48;;;;;;;1999.90;999.90;;;16.80;84.40;;;;;;4945966;28;20332;-74
2022/06/08 06:27:14;;;;;;;1999.90;999.90;;;16.70;84.50;;;;;;4977733;28;20377;-74
2022/06/08 06:29:40;;;;;;;1999.90;999.90;;;16.60;85.10;;;;;;4935167;28;20059;-74
2022/06/08 06:32:10;;;;;;;1999.90;999.90;;;16.70;84.10;;;;;;4942784;28;20043;-74
2022/06/08 06:34:37;;;;;;;1999.90;999.90;;;16.70;84.60;;;;;;4953569;28;20494;-74
2022/06/08 06:37:02;;;;;;;1999.90;999.90;;;16.80;84.80;;;;;;4952247;28;20798;-74
2022/06/08 06:39:28;;;;;;;1999.90;999.90;;;16.90;85.10;;;;;;4953468;28;20372;-74
2022/06/08 06:41:55;;;;;;;1999.90;999.90;;;16.90;84.70;;;;;;4952918;28;20047;-74
2022/06/08 06:44:22;;;;;;;1999.90;999.90;;;17.00;84.50;;;;;;4982255;28;20066;-74
2022/06/08 06:46:48;;;;;;;1999.90;999.90;;;17.10;84.20;;;;;;4936927;28;20286;-74
2022/06/08 06:49:13;;;;;;;1999.90;999.90;;;17.00;84.00;;;;;;4931980;28;20809;-74
2022/06/08 06:51:39;;;;;;;1999.90;999.90;;;16.90;83.40;;;;;;4936937;28;20496;-74
2022/06/08 06:54:08;;;;;;;1999.90;999.90;;;17.00;83.90;;;;;;4951248;28;20154;-74
2022/06/08 06:56:34;;;;;;;1999.90;999.90;;;17.00;83.30;;;;;;4953426;28;20329;-74
2022/06/08 06:59:02;;;;;;;1999.90;999.90;;;17.00;83.90;;;;;;4964801;28;20331;-74
2022/06/08 07:01:29;;;;;;;1999.90;999.90;;;17.10;83.00;;;;;;4937121;28;20349;-74
2022/06/08 07:03:55;;;;;;;1999.90;999.90;;;17.10;83.20;;;;;;4951604;28;20310;-74
2022/06/08 07:06:21;;;;;;;1999.90;999.90;;;17.20;83.60;;;;;;4952270;28;20077;-75
2022/06/08 07:08:46;;;;;;;1999.90;999.90;;;17.20;83.40;;;;;;4946999;28;20311;-75
2022/06/08 07:13:59;;;;;;;;;;;17.40;82.70;;;;;;4962765;28;20049;-75
2022/06/08 07:16:25;;;;;;;1999.90;999.90;;;17.50;81.30;;;;;;4965156;28;19928;-75
2022/06/08 07:18:51;;;;;;;1999.90;999.90;;;17.50;81.90;;;;;;4964177;28;20853;-74
2022/06/08 07:21:17;;;;;;;1999.90;999.90;;;17.60;81.90;;;;;;4950672;28;20302;-74
2022/06/08 07:23:43;;;;;;;1999.90;999.90;;;17.70;81.40;;;;;;4964056;28;20046;-73
2022/06/08 07:26:09;;;;;;;1999.90;999.90;;;17.70;80.00;;;;;;4947928;28;20036;-73
2022/06/08 07:28:34;;;;;;;1999.90;999.90;;;17.70;81.10;;;;;;4964136;28;20041;-73
2022/06/08 07:31:00;;;;;;;1999.90;999.90;;;17.70;80.90;;;;;;4951545;28;20518;-73
2022/06/08 07:33:27;;;;;;;1999.90;999.90;;;17.70;81.50;;;;;;4982975;28;20046;-72
2022/06/08 07:35:53;;;;;;;1999.90;999.90;;;17.80;81.70;;;;;;4950703;28;20043;-72
2022/06/08 07:38:18;;;;;;;1999.90;999.90;;;17.80;81.10;;;;;;4964105;28;20487;-72
2022/06/08 07:40:45;;;;;;;1999.90;999.90;;;17.80;81.40;;;;;;4950527;28;20124;-72
2022/06/08 07:43:11;;;;;;;1999.90;999.90;;;17.90;81.20;;;;;;4964984;28;20043;-72
2022/06/08 07:45:37;;;;;;;1999.90;999.90;;;17.90;80.30;;;;;;4951119;28;20641;-72
2022/06/08 07:50:46;;;;;;;1999.90;999.90;;;18.00;80.90;;;;;;4966661;28;20042;-72
2022/06/08 07:53:12;;;;;;;1999.90;999.90;;;18.30;80.10;;;;;;4935501;28;20736;-72
2022/06/08 07:55:38;;;;;;;1999.90;999.90;;;18.40;79.90;;;;;;4940242;28;20081;-72
2022/06/08 07:58:04;;;;;;;1999.90;999.90;;;18.70;78.80;;;;;;4934514;28;20058;-73
2022/06/08 08:00:30;;;;;;;1999.90;999.90;;;18.90;77.30;;;;;;4964377;28;20062;-73
2022/06/08 08:02:56;;;;;;;1999.90;999.90;;;19.10;77.40;;;;;;4982632;28;20099;-72
2022/06/08 08:05:22;;;;;;;1999.90;999.90;;;19.30;75.80;;;;;;4961307;28;20484;-72
2022/06/08 08:07:49;;;;;;;1999.90;999.90;;;19.40;75.60;;;;;;4965212;28;20129;-72
2022/06/08 08:10:18;;;;;;;1999.90;999.90;;;19.40;74.30;;;;;;4935346;28;20062;-74
2022/06/08 08:12:46;;;;;;;1999.90;999.90;;;19.50;75.30;;;;;;4962129;28;20105;-74
2022/06/08 08:15:13;;;;;;;1999.90;999.90;;;19.50;75.00;;;;;;4956670;28;20447;-74
2022/06/08 08:17:41;;;;;;;1999.90;999.90;;;19.50;75.00;;;;;;4967325;28;20061;-74
2022/06/08 08:20:08;;;;;;;1999.90;999.90;;;19.60;75.50;;;;;;4950895;28;20430;-74
2022/06/08 08:22:34;;;;;;;1999.90;999.90;;;19.60;74.70;;;;;;4935553;28;20043;-73
2022/06/08 08:24:59;;;;;;;1999.90;999.90;;;19.60;74.50;;;;;;4931793;28;20113;-74
2022/06/08 08:27:25;;;;;;;1999.90;999.90;;;19.60;74.70;;;;;;4963296;28;20673;-74
2022/06/08 08:29:51;;;;;;;1999.90;999.90;;;19.50;74.30;;;;;;4932687;28;20039;-74
2022/06/08 08:32:17;;;;;;;1999.90;999.90;;;19.50;74.10;;;;;;4935192;28;20045;-74
2022/06/08 08:34:42;;;;;;;1999.90;999.90;;;19.60;75.40;;;;;;4947329;28;20122;-74
2022/06/08 08:37:09;;;;;;;1999.90;999.90;;;19.70;75.00;;;;;;4931571;29;20054;-74
2022/06/08 08:39:35;;;;;;;1999.90;999.90;;;19.80;74.80;;;;;;4950288;28;20145;-74
2022/06/08 08:42:20;;;;;;;1999.90;999.90;;;20.10;74.10;;;;;;4955850;28;20188;-74
2022/06/08 08:44:51;;;;;;;1999.90;999.90;;;20.30;73.40;;;;;;4943063;28;20507;-74
2022/06/08 08:47:57;;;;;;;1999.90;999.90;;;20.60;72.60;;;;;;4953675;28;20126;-74
2022/06/08 08:50:48;;;;;;;1999.90;999.90;;;20.90;71.00;;;;;;4953269;28;20491;-74
2022/06/08 08:53:22;;;;;;;1999.90;999.90;;;21.20;69.70;;;;;;4965686;28;20053;-74
2022/06/08 08:55:51;;;;;;;1999.90;999.90;;;21.50;70.10;;;;;;4946086;29;20058;-74
2022/06/08 08:58:26;;;;;;;1999.90;999.90;;;21.60;68.10;;;;;;4949461;28;20353;-74
2022/06/08 09:01:14;;;;;;;1999.90;999.90;;;21.70;68.50;;;;;;4955654;28;20057;-74
2022/06/08 09:03:45;;;;;;;1999.90;999.90;;;21.90;68.60;;;;;;4964365;28;20086;-74
2022/06/08 09:06:20;;;;;;;1999.90;999.90;;;22.00;67.90;;;;;;4955352;28;20035;-74
2022/06/08 09:08:53;;;;;;;1999.90;999.90;;;22.00;65.10;;;;;;4956024;28;20039;-74
2022/06/08 09:11:24;;;;;;;1999.90;999.90;;;22.00;67.80;;;;;;4953056;28;20039;-74
2022/06/08 09:13:53;;;;;;;1999.90;999.90;;;22.00;67.90;;;;;;4934764;29;20366;-74
2022/06/08 09:16:46;;;;;;;1999.90;999.90;;;22.10;67.60;;;;;;4956884;28;20039;-74
2022/06/08 09:19:21;;;;;;;1999.90;999.90;;;22.00;65.60;;;;;;4955512;28;20039;-74
2022/06/08 09:21:48;;;;;;;;;;;22.00;65.90;;;;;;4957096;28;20047;-75
2022/06/08 09:24:37;;;;;;;1999.90;999.90;;;22.20;66.10;;;;;;4965877;28;19923;-74
2022/06/08 09:27:14;;;;;;;1999.90;999.90;;;22.40;66.60;;;;;;4950053;28;20122;-74
2022/06/08 09:30:15;;;;;;;1999.90;999.90;;;22.40;66.00;;;;;;4953202;28;20097;-74
2022/06/08 09:32:44;;;;;;;1999.90;999.90;;;22.50;65.00;;;;;;4952623;28;20043;-74
2022/06/08 09:35:19;;;;;;;1999.90;999.90;;;22.60;65.80;;;;;;4969919;28;20043;-74
2022/06/08 09:37:46;;;;;;;1999.90;999.90;;;22.80;65.40;;;;;;4954555;28;20611;-74
2022/06/08 09:40:36;;;;;;;1999.90;999.90;;;23.00;64.80;;;;;;4960005;28;20039;-74
2022/06/08 09:43:29;;;;;;;1999.90;999.90;;;23.10;63.60;;;;;;4963886;28;20166;-74
2022/06/08 09:46:05;;;;;;;1999.90;999.90;;;22.90;63.70;;;;;;4964048;28;20051;-74
2022/06/08 09:52:11;;;;;;;1999.90;999.90;;;22.70;62.70;;;;;;4964553;28;20403;-74
2022/06/08 09:55:15;;;;;;;1999.90;999.90;;;22.30;64.50;;;;;;4948756;28;20055;-74
2022/06/08 09:57:52;;;;;;;1999.90;999.90;;;22.00;64.00;;;;;;4948139;28;20059;-74
2022/06/08 10:00:27;;;;;;;1999.90;999.90;;;21.70;65.50;;;;;;4954828;28;20141;-74
2022/06/08 10:03:20;;;;;;;1999.90;999.90;;;21.70;65.50;;;;;;4962041;28;20518;-75
2022/06/08 10:06:13;;;;;;;1999.90;999.90;;;21.70;66.50;;;;;;4955829;28;20068;-74
2022/06/08 10:08:58;;;;;;;1999.90;999.90;;;21.70;64.90;;;;;;4953495;28;20053;-74
2022/06/08 10:11:39;;;;;;;1999.90;999.90;;;21.60;65.70;;;;;;4952646;28;20044;-74
2022/06/08 10:14:22;;;;;;;1999.90;999.90;;;21.40;66.90;;;;;;4960128;28;20062;-74
2022/06/08 10:16:59;;;;;;;1999.90;999.90;;;21.20;67.40;;;;;;4958123;28;20567;-74
2022/06/08 10:19:38;;;;;;;1999.90;999.90;;;21.00;68.70;;;;;;4969634;28;20051;-74
2022/06/08 10:22:05;;;;;;;1999.90;999.90;;;20.80;69.90;;;;;;4951668;28;20046;-75
2022/06/08 10:24:47;;;;;;;1999.90;999.90;;;20.50;71.30;;;;;;4954686;28;20422;-74
2022/06/08 10:27:32;;;;;;;1999.90;999.90;;;20.30;73.20;;;;;;4962602;28;20153;-74
2022/06/08 10:30:18;;;;;;;1999.90;999.90;;;20.10;74.30;;;;;;4956913;28;20047;-74
2022/06/08 10:33:00;;;;;;;1999.90;999.90;;;20.00;75.50;;;;;;4955707;28;20046;-74
2022/06/08 10:35:38;;;;;;;1999.90;999.90;;;20.00;75.80;;;;;;4961576;28;20039;-74
2022/06/08 10:38:05;;;;;;;1999.90;999.90;;;19.80;76.70;;;;;;4968577;28;20042;-74
2022/06/08 10:40:48;;;;;;;1999.90;999.90;;;19.80;78.20;;;;;;4981925;28;20495;-74
2022/06/08 10:43:32;;;;;;;1999.90;999.90;;;19.90;79.10;;;;;;4974919;28;20046;-73
2022/06/08 10:46:01;;;;;;;1999.90;999.90;;;20.20;79.10;;;;;;4968733;28;20400;-74
2022/06/08 10:48:33;;;;;;;1999.90;999.90;;;20.40;78.60;;;;;;4968719;28;20051;-74
2022/06/08 10:51:27;;;;;;;1999.90;999.90;;;20.60;77.80;;;;;;4965276;28;20070;-74
2022/06/08 10:56:38;;;;;;;1999.90;999.90;;;20.90;77.20;;;;;;4968492;28;20050;-74
2022/06/08 10:59:07;;;;;;;1999.90;999.90;;;21.00;76.30;;;;;;4948797;28;20397;-74
2022/06/08 11:01:54;;;;;;;1999.90;597.63;;;21.10;75.80;;;;;;4962986;28;20130;-74
2022/06/08 11:07:01;;;;;;;;;;;21.50;74.80;;;;;;4954634;28;20051;-74
2022/06/08 11:09:35;;;;;;;1999.90;333.17;;;21.70;76.20;;;;;;4969859;28;19930;-74
2022/06/08 11:12:04;;;;;;;1999.90;372.70;;;21.90;75.00;;;;;;4968003;28;20126;-74
2022/06/08 11:14:52;;;;;;;1999.90;313.00;;;22.10;73.00;;;;;;4967043;28;20079;-74
2022/06/08 11:17:30;;;;;;;1999.90;389.00;;;22.30;73.00;;;;;;4959773;28;20042;-74
2022/06/08 11:20:11;;;;;;;1999.90;361.13;;;22.50;72.30;;;;;;4937411;28;20451;-74
2022/06/08 11:22:46;;;;;;;1999.90;345.23;;;22.60;71.50;;;;;;4959784;28;20542;-74
2022/06/08 11:25:21;;;;;;;1999.90;289.20;;;22.70;71.70;;;;;;4962714;28;20118;-74
2022/06/08 11:28:25;;;;;;;1999.90;262.17;;;22.80;71.00;;;;;;4954502;28;20122;-74
2022/06/08 11:30:52;;;;;;;1999.90;317.50;;;22.70;69.80;;;;;;4951900;28;20412;-74
2022/06/08 11:33:20;;;;;;;1999.90;246.83;;;22.50;68.70;;;;;;4957766;28;20407;-74
2022/06/08 11:36:08;;;;;;;1999.90;327.00;;;22.30;68.50;;;;;;4974870;28;20423;-74
2022/06/08 11:39:12;;;;;;;1999.90;352.63;;;22.00;69.40;;;;;;4950600;28;20078;-74
2022/06/08 11:41:42;;;;;;;1999.90;363.47;;;21.60;70.80;;;;;;4961713;28;20101;-74
2022/06/08 11:44:20;;;;;;;1999.90;556.10;;;21.10;72.90;;;;;;4937774;28;20518;-74
2022/06/08 11:46:53;;;;;;;1999.90;309.57;;;20.90;73.60;;;;;;4942315;29;20496;-74
2022/06/08 11:49:28;;;;;;;1999.90;318.90;;;20.60;74.00;;;;;;4950056;28;20041;-74
2022/06/08 11:51:54;;;;;;;1999.90;337.20;;;20.30;74.60;;;;;;4965540;28;20046;-74
2022/06/08 11:54:29;;;;;;;1999.90;293.10;;;20.00;75.90;;;;;;4957148;28;20084;-74
2022/06/08 11:57:04;;;;;;;1999.90;319.37;;;19.80;76.10;;;;;;4963642;28;20110;-74
2022/06/08 11:59:36;;;;;;;1999.90;376.00;;;19.70;77.10;;;;;;4939553;29;20058;-74
2022/06/08 12:02:18;;;;;;;1999.90;268.50;;;19.60;78.00;;;;;;4979224;28;20105;-74
2022/06/08 12:04:47;;;;;;;1999.90;311.33;;;19.70;78.30;;;;;;4946576;28;20585;-74
2022/06/08 12:07:51;;;;;;;1999.90;308.47;;;19.80;78.30;;;;;;4949776;28;20098;-74
2022/06/08 12:10:26;;;;;;;1999.90;350.17;;;20.00;76.70;;;;;;4967062;28;20046;-75
2022/06/08 12:12:53;;;;;;;;;;;20.00;76.40;;;;;;4962691;28;20039;-74
2022/06/08 12:15:30;;;;;;;1999.90;290.07;;;20.00;75.90;;;;;;4950895;28;19922;-74
2022/06/08 12:18:17;;;;;;;1999.90;430.43;;;19.90;76.20;;;;;;4968689;28;20538;-74
2022/06/08 12:20:43;;;;;;;1999.90;337.63;;;19.90;76.30;;;;;;4957319;28;20069;-74
2022/06/08 12:23:09;;;;;;;1999.90;337.67;;;19.80;76.40;;;;;;4931844;28;20039;-74
2022/06/08 12:25:35;;;;;;;1999.90;440.67;;;19.80;76.10;;;;;;4950887;28;20110;-74
2022/06/08 12:28:15;;;;;;;1999.90;368.73;;;19.80;76.50;;;;;;4969663;28;20140;-74
2022/06/08 12:30:43;;;;;;;1999.90;363.83;;;19.90;76.00;;;;;;4951301;28;20073;-74
2022/06/08 12:33:18;;;;;;;1999.90;303.27;;;19.80;75.70;;;;;;4952526;28;20053;-74
2022/06/08 12:36:06;;;;;;;1999.90;319.00;;;19.70;75.00;;;;;;4971301;28;20051;-74
2022/06/08 12:38:34;;;;;;;1999.90;305.73;;;19.60;74.30;;;;;;4950298;28;20077;-74
2022/06/08 12:41:09;;;;;;;1999.90;295.50;;;19.40;75.20;;;;;;4952387;28;20042;-74
2022/06/08 12:43:49;;;;;;;1999.90;357.03;;;19.30;75.00;;;;;;4950233;28;20047;-74
2022/06/08 12:46:20;;;;;;;1999.90;299.57;;;19.00;74.70;;;;;;4951509;28;20039;-74